Time;durP1;ratioP1;P1;durP2;ratioP2;P2;SDS_P1;SDS_P2;PMS_P1;PMS_P2;Temp;Humidity;BMP_temperature;BMP_pressure;BME280_temperature;BME280_humidity;BME280_pressure;Samples;Min_cycle;Max_cycle;Signal;HPM_P1;HPM_P2
2022/03/08 00:02:17;;;;;;;10.55;7.30;;;;;;;0.62;85.07;102591.78;5021491;28;20635;-64
2022/03/08 00:04:43;;;;;;;12.32;7.18;;;;;;;0.60;84.77;102596.09;5022961;28;20025;-64
2022/03/08 00:07:08;;;;;;;14.02;7.40;;;;;;;0.59;84.96;102602.16;5021071;28;20118;-64
2022/03/08 00:09:34;;;;;;;11.27;6.72;;;;;;;0.56;84.89;102589.03;5019241;28;20033;-64
2022/03/08 00:12:00;;;;;;;12.85;7.70;;;;;;;0.54;84.81;102591.59;5019807;28;20688;-64
2022/03/08 00:14:25;;;;;;;10.82;6.70;;;;;;;0.52;84.63;102588.97;5021942;28;20055;-64
2022/03/08 00:16:50;;;;;;;12.98;7.38;;;;;;;0.50;85.05;102587.16;5021604;28;20035;-64
2022/03/08 00:19:16;;;;;;;12.73;7.30;;;;;;;0.48;84.87;102589.72;5022060;28;20041;-64
2022/03/08 00:21:41;;;;;;;14.65;7.07;;;;;;;0.46;84.99;102585.31;5021474;28;20037;-64
2022/03/08 00:24:08;;;;;;;12.15;7.28;;;;;;;0.43;84.52;102578.28;5020913;28;20092;-64
2022/03/08 00:26:34;;;;;;;10.93;6.80;;;;;;;0.42;84.51;102578.28;5021058;28;20052;-64
2022/03/08 00:28:59;;;;;;;13.02;7.60;;;;;;;0.41;84.81;102577.38;5021085;28;20028;-65
2022/03/08 00:31:24;;;;;;;11.15;7.82;;;;;;;0.39;84.79;102568.66;5022158;28;20095;-64
2022/03/08 00:33:50;;;;;;;12.38;7.57;;;;;;;0.38;84.97;102564.28;5021032;28;20120;-64
2022/03/08 00:36:16;;;;;;;13.82;7.18;;;;;;;0.37;84.73;102559.91;5021849;28;20073;-65
2022/03/08 00:38:42;;;;;;;10.13;6.93;;;;;;;0.36;84.61;102558.13;4997066;28;20057;-65
2022/03/08 00:41:07;;;;;;;13.30;7.38;;;;;;;0.34;84.74;102547.69;5021204;28;20039;-64
2022/03/08 00:43:33;;;;;;;12.88;7.82;;;;;;;0.33;84.57;102545.91;5020383;28;20061;-64
2022/03/08 00:45:58;;;;;;;12.57;7.53;;;;;;;0.32;84.64;102540.69;5018566;28;20032;-64
2022/03/08 00:48:24;;;;;;;11.43;7.50;;;;;;;0.29;84.60;102536.28;5020607;28;20033;-64
2022/03/08 00:50:49;;;;;;;11.35;7.35;;;;;;;0.27;84.68;102532.72;5022065;28;20539;-64
2022/03/08 00:53:15;;;;;;;14.90;7.28;;;;;;;0.24;84.71;102520.53;5019717;28;20032;-64
2022/03/08 00:55:40;;;;;;;12.23;7.75;;;;;;;0.23;84.50;102517.88;5021521;28;20056;-64
2022/03/08 00:58:07;;;;;;;13.10;7.80;;;;;;;0.21;84.67;102523.03;5020459;28;20033;-64
2022/03/08 01:00:34;;;;;;;12.05;7.10;;;;;;;0.19;84.20;102523.84;5021818;28;20041;-63
2022/03/08 01:02:59;;;;;;;10.73;7.20;;;;;;;0.16;84.53;102522.03;5020114;28;20141;-63
2022/03/08 01:05:25;;;;;;;22.55;8.20;;;;;;;0.15;84.36;102516.81;5021249;28;20036;-63
2022/03/08 01:07:51;;;;;;;11.82;7.30;;;;;;;0.13;84.62;102517.63;5019130;28;20045;-63
2022/03/08 01:10:19;;;;;;;13.40;7.90;;;;;;;0.11;84.52;102519.31;5021975;28;20041;-63
2022/03/08 01:12:45;;;;;;;14.25;7.60;;;;;;;0.10;84.67;102520.19;5022096;28;20033;-63
2022/03/08 01:15:12;;;;;;;11.55;7.72;;;;;;;0.09;84.35;102517.53;5019904;28;20155;-64
2022/03/08 01:17:38;;;;;;;11.48;7.50;;;;;;;0.06;84.24;102517.47;5021406;28;20041;-64
2022/03/08 01:20:06;;;;;;;13.18;7.38;;;;;;;0.03;84.20;102506.94;5020306;28;20091;-64
2022/03/08 01:22:31;;;;;;;12.23;6.88;;;;;;;0.03;84.57;102506.94;5019897;28;20025;-64
2022/03/08 01:24:57;;;;;;;12.90;7.80;;;;;;;0.01;84.30;102498.22;5021321;28;20032;-64
2022/03/08 01:27:23;;;;;;;12.32;7.63;;;;;;;0.01;84.32;102493.00;5020752;28;20025;-65
2022/03/08 01:29:48;;;;;;;18.13;8.40;;;;;;;-0.02;84.36;102488.59;5019394;28;20908;-64
2022/03/08 01:32:14;;;;;;;13.85;7.40;;;;;;;-0.03;84.44;102492.06;5020342;28;20040;-64
2022/03/08 01:34:39;;;;;;;14.73;8.27;;;;;;;-0.05;84.38;102483.34;5021150;28;20025;-64
2022/03/08 01:37:05;;;;;;;11.75;7.97;;;;;;;-0.06;84.20;102486.78;5018568;28;20041;-64
2022/03/08 01:39:31;;;;;;;12.25;8.57;;;;;;;-0.08;84.38;102485.84;5018082;28;20054;-64
2022/03/08 01:41:56;;;;;;;14.35;7.70;;;;;;;-0.09;84.60;102481.47;5019625;28;20041;-65
2022/03/08 01:44:22;;;;;;;12.35;7.25;;;;;;;-0.11;84.09;102488.38;5021224;28;20349;-64
2022/03/08 01:46:48;;;;;;;15.02;8.10;;;;;;;-0.13;84.32;102479.66;5020560;28;20373;-64
2022/03/08 01:49:13;;;;;;;13.55;8.02;;;;;;;-0.14;84.61;102478.78;5020917;28;20049;-64
2022/03/08 01:51:39;;;;;;;14.77;8.20;;;;;;;-0.16;84.59;102478.72;5019866;28;20037;-64
2022/03/08 01:54:06;;;;;;;13.63;7.18;;;;;;;-0.16;84.21;102480.47;5018164;28;20029;-63
2022/03/08 01:56:33;;;;;;;13.20;7.80;;;;;;;-0.18;84.22;102477.81;5018269;28;20037;-63
2022/03/08 01:59:00;;;;;;;12.35;7.93;;;;;;;-0.18;84.41;102480.41;5020450;28;20029;-64
2022/03/08 02:01:25;;;;;;;15.82;8.38;;;;;;;-0.18;84.39;102482.13;5020519;28;20040;-64
2022/03/08 02:03:51;;;;;;;14.70;8.73;;;;;;;-0.20;84.12;102484.72;5020736;28;21550;-64
2022/03/08 02:06:16;;;;;;;15.75;8.20;;;;;;;-0.22;84.64;102480.31;5019329;28;20041;-64
2022/03/08 02:08:42;;;;;;;13.65;8.40;;;;;;;-0.22;84.12;102483.78;5019002;28;21661;-64
2022/03/08 02:11:08;;;;;;;13.95;8.32;;;;;;;-0.23;84.71;102487.22;5036205;28;20037;-64
2022/03/08 02:13:33;;;;;;;12.38;8.23;;;;;;;-0.25;84.46;102481.09;5020361;28;20136;-63
2022/03/08 02:15:59;;;;;;;13.55;8.35;;;;;;;-0.26;84.58;102484.56;5020071;28;20116;-64
2022/03/08 02:18:24;;;;;;;16.95;8.18;;;;;;;-0.28;84.46;102481.91;5019477;28;20128;-63
2022/03/08 02:20:50;;;;;;;14.38;8.38;;;;;;;-0.27;84.44;102485.41;5020073;28;20089;-63
2022/03/08 02:23:16;;;;;;;13.70;8.02;;;;;;;-0.29;84.21;102481.84;5016347;28;20044;-63
2022/03/08 02:25:42;;;;;;;14.38;7.95;;;;;;;-0.30;84.70;102480.09;5020528;28;20082;-64
2022/03/08 02:28:08;;;;;;;14.10;8.65;;;;;;;-0.32;84.44;102469.63;5020270;28;20455;-63
2022/03/08 02:30:33;;;;;;;13.40;8.13;;;;;;;-0.31;84.53;102475.72;5019769;28;20448;-63
2022/03/08 02:32:59;;;;;;;14.05;8.60;;;;;;;-0.32;84.65;102479.19;5017972;28;20067;-63
2022/03/08 02:35:29;;;;;;;13.93;8.27;;;;;;;-0.34;84.24;102471.31;5021501;28;20119;-63
2022/03/08 02:37:58;;;;;;;14.80;8.23;;;;;;;-0.35;84.35;102473.88;5019281;28;20042;-63
2022/03/08 02:40:26;;;;;;;13.52;7.82;;;;;;;-0.37;84.33;102470.38;5020597;28;20034;-63
2022/03/08 02:42:51;;;;;;;15.93;9.15;;;;;;;-0.37;84.31;102475.56;5024194;28;20091;-63
2022/03/08 02:45:17;;;;;;;13.93;8.38;;;;;;;-0.37;84.82;102470.38;5025290;28;20562;-63
2022/03/08 02:47:43;;;;;;;14.80;8.32;;;;;;;-0.38;84.42;102466.88;5022897;28;20041;-63
2022/03/08 02:50:12;;;;;;;15.15;8.68;;;;;;;-0.38;84.52;102464.25;5024761;28;20060;-63
2022/03/08 02:52:39;;;;;;;15.07;9.23;;;;;;;-0.38;84.84;102458.19;5021808;28;20037;-66
2022/03/08 02:55:05;;;;;;;15.88;8.93;;;;;;;-0.38;84.71;102463.41;5024765;28;20034;-65
2022/03/08 02:57:31;;;;;;;15.68;9.00;;;;;;;-0.39;84.77;102454.69;5022762;28;20491;-65
2022/03/08 02:59:56;;;;;;;17.38;9.20;;;;;;;-0.40;84.79;102459.88;5024332;28;20026;-65
2022/03/08 03:02:22;;;;;;;16.17;9.20;;;;;;;-0.41;84.53;102459.00;5018720;28;20094;-65
2022/03/08 03:04:48;;;;;;;14.70;9.05;;;;;;;-0.42;84.81;102457.22;5022609;28;20090;-65
2022/03/08 03:07:16;;;;;;;16.75;9.18;;;;;;;-0.43;84.58;102448.53;5015530;28;20662;-65
2022/03/08 03:09:42;;;;;;;17.17;9.52;;;;;;;-0.44;84.80;102451.97;5020716;28;20500;-65
2022/03/08 03:12:08;;;;;;;17.58;9.80;;;;;;;-0.45;84.56;102445.03;5021869;28;20063;-65
2022/03/08 03:14:34;;;;;;;15.98;9.27;;;;;;;-0.45;84.85;102441.53;5018224;28;20049;-65
2022/03/08 03:16:59;;;;;;;14.73;9.02;;;;;;;-0.46;84.79;102447.56;5022567;28;20686;-65
2022/03/08 03:19:25;;;;;;;13.88;9.13;;;;;;;-0.48;84.85;102452.72;5002048;28;20610;-65
2022/03/08 03:21:50;;;;;;;17.05;9.52;;;;;;;-0.48;84.85;102449.25;5023059;28;20033;-66
2022/03/08 03:24:16;;;;;;;15.02;9.55;;;;;;;-0.48;84.92;102449.25;5023947;28;20044;-63
2022/03/08 03:26:42;;;;;;;17.30;9.95;;;;;;;-0.49;84.98;102448.38;5021159;28;20061;-64
2022/03/08 03:29:08;;;;;;;14.82;9.35;;;;;;;-0.49;85.24;102440.56;5023022;28;20043;-64
2022/03/08 03:31:33;;;;;;;14.82;9.30;;;;;;;-0.50;85.23;102433.59;5021958;28;20480;-63
2022/03/08 03:33:59;;;;;;;14.32;9.32;;;;;;;-0.49;85.04;102430.16;5022861;28;20035;-64
2022/03/08 03:36:24;;;;;;;19.58;10.32;;;;;;;-0.50;85.34;102433.59;5021927;28;20766;-64
2022/03/08 03:38:50;;;;;;;19.55;9.98;;;;;;;-0.50;85.10;102428.41;5020624;28;20037;-64
2022/03/08 03:41:16;;;;;;;18.48;9.85;;;;;;;-0.51;85.11;102426.63;5023132;28;20037;-64
2022/03/08 03:43:41;;;;;;;16.48;9.63;;;;;;;-0.52;85.18;102422.28;5022320;28;21318;-63
2022/03/08 03:46:07;;;;;;;16.23;9.55;;;;;;;-0.53;84.92;102417.91;5020377;28;20571;-64
2022/03/08 03:48:34;;;;;;;17.63;9.40;;;;;;;-0.52;84.98;102424.88;5020651;28;20456;-63
2022/03/08 03:50:59;;;;;;;17.58;9.75;;;;;;;-0.53;85.21;102417.91;5021244;28;20124;-63
2022/03/08 03:53:25;;;;;;;17.42;10.70;;;;;;;-0.55;85.29;102419.56;5019719;28;20056;-64
2022/03/08 03:55:50;;;;;;;17.63;9.70;;;;;;;-0.55;85.08;102424.78;5037525;28;20121;-64
2022/03/08 03:58:16;;;;;;;16.00;9.52;;;;;;;-0.56;85.29;102418.72;5022028;28;20052;-64
2022/03/08 04:00:41;;;;;;;16.88;10.15;;;;;;;-0.58;85.08;102412.59;5023102;28;20029;-64
2022/03/08 04:03:07;;;;;;;19.67;10.52;;;;;;;-0.58;85.46;102419.50;5022097;28;20060;-64
2022/03/08 04:05:33;;;;;;;19.58;10.75;;;;;;;-0.61;85.24;102414.25;5022329;28;20020;-64
2022/03/08 04:07:59;;;;;;;17.90;10.45;;;;;;;-0.62;85.15;102409.84;5020423;28;20025;-64
2022/03/08 04:10:24;;;;;;;20.25;10.82;;;;;;;-0.65;85.22;102410.66;5021928;28;20795;-64
2022/03/08 04:12:50;;;;;;;17.45;10.35;;;;;;;-0.68;85.28;102415.78;5022074;28;20687;-64
2022/03/08 04:15:17;;;;;;;17.92;10.68;;;;;;;-0.72;85.29;102412.22;5023212;28;20037;-64
2022/03/08 04:17:43;;;;;;;19.17;11.13;;;;;;;-0.75;85.08;102422.56;5022274;28;20029;-64
2022/03/08 04:20:10;;;;;;;18.50;11.23;;;;;;;-0.78;84.82;102413.75;5022811;28;20033;-64
2022/03/08 04:22:36;;;;;;;16.65;10.63;;;;;;;-0.81;85.06;102414.59;5003158;28;20700;-64
2022/03/08 04:25:03;;;;;;;20.17;11.68;;;;;;;-0.83;84.97;102424.03;5021858;28;20632;-64
2022/03/08 04:27:28;;;;;;;19.58;10.93;;;;;;;-0.87;85.19;102427.41;5021464;28;20044;-62
2022/03/08 04:29:54;;;;;;;20.13;11.55;;;;;;;-0.91;85.17;102421.25;5020682;28;20033;-64
2022/03/08 04:32:19;;;;;;;17.80;11.00;;;;;;;-0.93;85.35;102416.84;5022417;28;20112;-64
2022/03/08 04:34:45;;;;;;;21.23;11.13;;;;;;;-0.94;85.26;102415.09;5021894;28;20033;-63
2022/03/08 04:37:10;;;;;;;20.88;11.88;;;;;;;-0.96;85.18;102421.09;5020097;28;20048;-63
2022/03/08 04:39:36;;;;;;;21.70;11.68;;;;;;;-0.97;85.28;102419.34;5022290;28;20041;-64
2022/03/08 04:42:02;;;;;;;18.08;11.70;;;;;;;-0.99;85.34;102418.44;5020763;28;20762;-63
2022/03/08 04:44:28;;;;;;;20.55;11.48;;;;;;;-1.00;85.38;102415.78;5020909;28;20049;-63
2022/03/08 04:46:53;;;;;;;22.90;11.95;;;;;;;-1.02;85.36;102410.56;5021875;28;20408;-63
2022/03/08 04:49:19;;;;;;;20.08;12.35;;;;;;;-1.01;85.38;102414.03;5022025;28;20419;-63
2022/03/08 04:51:44;;;;;;;21.58;11.77;;;;;;;-1.02;85.38;102410.56;5020649;28;20026;-63
2022/03/08 04:54:10;;;;;;;21.77;11.95;;;;;;;-1.01;85.29;102414.91;5020848;28;20382;-64
2022/03/08 04:56:35;;;;;;;20.88;12.70;;;;;;;-1.01;85.52;102419.22;5020955;28;20032;-64
2022/03/08 04:59:01;;;;;;;20.63;12.45;;;;;;;-1.02;85.29;102418.34;5022188;28;20033;-63
2022/03/08 05:01:26;;;;;;;21.73;13.00;;;;;;;-1.02;85.40;102417.47;5020589;28;20071;-63
2022/03/08 05:03:52;;;;;;;21.50;12.90;;;;;;;-1.03;85.38;102420.91;5020771;28;20045;-64
2022/03/08 05:06:18;;;;;;;23.25;13.48;;;;;;;-1.03;85.49;102418.31;5020578;28;20037;-64
2022/03/08 05:08:44;;;;;;;23.88;13.35;;;;;;;-1.05;85.43;102413.06;5019937;28;20037;-63
2022/03/08 05:11:09;;;;;;;23.40;13.57;;;;;;;-1.06;85.50;102421.69;5021425;28;20124;-64
2022/03/08 05:13:35;;;;;;;22.83;13.18;;;;;;;-1.05;85.67;102423.47;5021601;28;20044;-64
2022/03/08 05:16:01;;;;;;;22.25;13.55;;;;;;;-1.06;85.61;102416.50;5016682;28;20041;-63
2022/03/08 05:18:27;;;;;;;22.70;13.18;;;;;;;-1.07;85.66;102414.75;5019919;28;20065;-63
2022/03/08 05:20:52;;;;;;;25.92;14.20;;;;;;;-1.08;85.69;102407.78;5021172;28;20526;-64
2022/03/08 05:23:18;;;;;;;21.30;13.30;;;;;;;-1.09;85.50;102416.44;5020000;28;20032;-63
2022/03/08 05:25:43;;;;;;;22.95;14.00;;;;;;;-1.10;85.45;102417.22;5020595;28;20064;-64
2022/03/08 05:28:09;;;;;;;25.92;13.55;;;;;;;-1.10;85.77;102406.84;5020343;28;20037;-64
2022/03/08 05:30:35;;;;;;;22.98;13.63;;;;;;;-1.11;85.49;102410.28;5021383;28;20475;-64
2022/03/08 05:33:00;;;;;;;24.45;13.43;;;;;;;-1.12;85.80;102411.13;5020734;28;20070;-64
2022/03/08 05:35:27;;;;;;;24.05;14.15;;;;;;;-1.12;85.47;102413.72;5036855;28;20029;-63
2022/03/08 05:37:52;;;;;;;23.02;14.20;;;;;;;-1.15;85.74;102409.31;5018116;28;20484;-64
2022/03/08 05:40:18;;;;;;;25.08;14.55;;;;;;;-1.14;85.69;102411.06;5019877;28;20129;-64
2022/03/08 05:42:44;;;;;;;25.60;14.40;;;;;;;-1.16;85.63;102404.97;5020737;28;20041;-64
2022/03/08 05:45:10;;;;;;;26.70;15.50;;;;;;;-1.13;85.79;102417.16;5020188;28;20530;-64
2022/03/08 05:47:37;;;;;;;24.42;14.52;;;;;;;-1.14;85.76;102412.81;5020887;28;20339;-64
2022/03/08 05:50:04;;;;;;;24.58;14.38;;;;;;;-1.14;85.83;102418.88;5020317;28;20025;-64
2022/03/08 05:52:31;;;;;;;25.80;14.18;;;;;;;-1.14;85.68;102412.81;5019739;28;20560;-64
2022/03/08 05:54:56;;;;;;;26.23;14.98;;;;;;;-1.14;86.09;102416.28;5022855;28;20032;-64
2022/03/08 05:57:22;;;;;;;26.50;14.90;;;;;;;-1.14;86.20;102410.22;5020618;28;20201;-64
2022/03/08 05:59:49;;;;;;;24.40;14.50;;;;;;;-1.14;86.05;102405.88;5020164;28;20400;-64
2022/03/08 06:02:19;;;;;;;25.45;15.20;;;;;;;-1.14;86.14;102407.59;5020551;28;20025;-64
2022/03/08 06:04:44;;;;;;;26.88;15.20;;;;;;;-1.13;86.08;102405.03;5017900;28;20033;-64
2022/03/08 06:07:10;;;;;;;28.48;15.93;;;;;;;-1.14;86.30;102407.59;5019750;28;20671;-64
2022/03/08 06:09:35;;;;;;;27.52;16.10;;;;;;;-1.14;86.05;102408.47;5016680;28;20495;-64
2022/03/08 06:12:02;;;;;;;26.60;15.32;;;;;;;-1.15;86.18;102405.84;5020294;28;20055;-63
2022/03/08 06:14:28;;;;;;;24.80;14.93;;;;;;;-1.15;86.10;102406.72;5020853;28;20033;-64
2022/03/08 06:16:54;;;;;;;27.00;15.10;;;;;;;-1.15;86.31;102400.66;5020535;28;20040;-63
2022/03/08 06:19:19;;;;;;;30.42;16.00;;;;;;;-1.15;86.40;102403.25;5023185;28;22174;-64
2022/03/08 06:21:45;;;;;;;23.63;15.07;;;;;;;-1.16;86.35;102398.88;5023047;28;21865;-64
2022/03/08 06:24:11;;;;;;;25.65;14.77;;;;;;;-1.16;86.14;102398.88;5023240;28;20247;-64
2022/03/08 06:26:37;;;;;;;26.02;15.82;;;;;;;-1.16;86.16;102402.34;5025109;28;20250;-64
2022/03/08 06:29:03;;;;;;;26.77;15.15;;;;;;;-1.15;86.40;102401.50;5021479;28;20124;-64
2022/03/08 06:31:28;;;;;;;25.02;14.63;;;;;;;-1.13;86.42;102411.97;5023246;28;20124;-64
2022/03/08 06:33:54;;;;;;;25.05;15.07;;;;;;;-1.13;86.27;102412.81;5023563;28;20057;-64
2022/03/08 06:36:20;;;;;;;26.25;15.18;;;;;;;-1.11;86.42;102415.47;5024178;28;20160;-65
2022/03/08 06:38:45;;;;;;;24.15;15.15;;;;;;;-1.10;86.53;102415.53;5022487;28;20026;-64
2022/03/08 06:41:11;;;;;;;27.70;15.23;;;;;;;-1.07;86.42;102421.66;5022382;28;20045;-64
2022/03/08 06:43:36;;;;;;;24.35;14.70;;;;;;;-1.06;86.53;102421.69;5023885;28;20470;-64
2022/03/08 06:46:02;;;;;;;24.52;14.20;;;;;;;-1.03;86.57;102420.91;5023167;28;20037;-64
2022/03/08 06:48:27;;;;;;;25.08;15.30;;;;;;;-1.02;86.60;102426.16;5023344;28;20123;-64
2022/03/08 06:50:53;;;;;;;29.25;15.35;;;;;;;-1.00;86.63;102420.97;5024260;28;20262;-64
2022/03/08 06:53:18;;;;;;;31.63;16.42;;;;;;;-0.98;86.41;102424.53;5021559;28;20065;-64
2022/03/08 06:55:44;;;;;;;29.80;15.93;;;;;;;-0.96;86.29;102423.69;5024372;28;20502;-64
2022/03/08 06:58:09;;;;;;;23.90;14.50;;;;;;;-0.94;86.58;102425.50;5004509;28;20127;-64
2022/03/08 07:00:35;;;;;;;27.70;16.85;;;;;;;-0.92;86.61;102431.59;5024208;28;20490;-64
2022/03/08 07:03:00;;;;;;;27.67;16.63;;;;;;;-0.89;86.75;102436.88;5020169;28;20029;-64
2022/03/08 07:05:26;;;;;;;24.35;15.38;;;;;;;-0.87;86.28;102430.03;5023672;28;20118;-64
2022/03/08 07:07:51;;;;;;;24.10;15.18;;;;;;;-0.83;86.55;102429.25;5019231;28;20439;-65
2022/03/08 07:10:17;;;;;;;29.85;16.38;;;;;;;-0.79;86.60;102432.81;5023962;28;20468;-64
2022/03/08 07:12:43;;;;;;;24.42;15.55;;;;;;;-0.74;86.80;102428.63;5023276;28;20066;-63
2022/03/08 07:15:08;;;;;;;26.27;16.50;;;;;;;-0.71;86.79;102433.94;5023192;28;20334;-64
2022/03/08 07:17:34;;;;;;;26.15;15.85;;;;;;;-0.67;86.93;102430.56;5023278;28;20040;-64
2022/03/08 07:20:00;;;;;;;24.98;15.30;;;;;;;-0.63;86.84;102435.00;5020476;28;20115;-64
2022/03/08 07:22:25;;;;;;;28.63;16.50;;;;;;;-0.59;86.93;102438.56;5018838;28;20062;-64
2022/03/08 07:24:50;;;;;;;28.67;16.33;;;;;;;-0.54;86.90;102434.38;5020357;28;20037;-63
2022/03/08 07:27:16;;;;;;;26.33;16.13;;;;;;;-0.51;86.92;102442.25;5021993;28;20040;-64
2022/03/08 07:29:43;;;;;;;27.95;16.45;;;;;;;-0.47;86.64;102444.09;5016353;28;20033;-65
2022/03/08 07:32:09;;;;;;;27.45;15.88;;;;;;;-0.43;86.87;102451.13;5020732;28;20032;-69
2022/03/08 07:34:35;;;;;;;25.92;16.08;;;;;;;-0.38;86.71;102447.78;5023466;28;20040;-68
2022/03/08 07:37:00;;;;;;;27.58;16.40;;;;;;;-0.34;86.78;102447.00;5000835;28;20040;-67
2022/03/08 07:39:26;;;;;;;26.42;16.05;;;;;;;-0.31;86.85;102440.19;5021621;28;20167;-66
2022/03/08 07:41:52;;;;;;;22.33;14.73;;;;;;;-0.26;87.07;102442.91;5021824;28;20045;-66
2022/03/08 07:44:17;;;;;;;24.77;15.10;;;;;;;-0.23;86.90;102442.97;5022216;28;20049;-67
2022/03/08 07:46:43;;;;;;;28.25;16.20;;;;;;;-0.18;86.79;102448.28;5021488;28;20046;-67
2022/03/08 07:49:08;;;;;;;22.73;14.45;;;;;;;-0.13;86.57;102440.59;5020411;28;20033;-67
2022/03/08 07:51:34;;;;;;;26.85;15.27;;;;;;;-0.09;87.05;102442.41;5020391;28;20040;-67
2022/03/08 07:53:59;;;;;;;26.55;15.43;;;;;;;-0.04;86.65;102439.06;5018985;28;20117;-67
2022/03/08 07:56:25;;;;;;;24.23;15.02;;;;;;;0.01;87.08;102449.63;5020198;28;20112;-67
2022/03/08 07:58:52;;;;;;;23.83;15.25;;;;;;;0.06;87.10;102439.31;5018611;28;20063;-67
2022/03/08 08:01:18;;;;;;;23.48;14.27;;;;;;;0.11;87.04;102445.53;5021723;28;20455;-67
2022/03/08 08:03:43;;;;;;;23.27;15.45;;;;;;;0.15;87.05;102439.53;5021307;28;20124;-67
2022/03/08 08:06:09;;;;;;;25.77;15.18;;;;;;;0.22;86.97;102441.44;5020186;28;20142;-67
2022/03/08 08:08:35;;;;;;;21.60;15.13;;;;;;;0.28;86.55;102445.94;5019732;28;20046;-68
2022/03/08 08:11:00;;;;;;;25.10;15.88;;;;;;;0.33;86.55;102444.28;5017773;28;20052;-67
2022/03/08 08:13:25;;;;;;;24.88;15.00;;;;;;;0.38;86.50;102445.28;5022050;28;20048;-68
2022/03/08 08:15:51;;;;;;;21.10;14.35;;;;;;;0.44;86.24;102451.47;5021007;28;20399;-67
2022/03/08 08:18:16;;;;;;;21.05;14.70;;;;;;;0.48;86.54;102446.38;5019326;28;20094;-67
2022/03/08 08:20:42;;;;;;;20.25;13.27;;;;;;;0.54;86.30;102448.22;5022672;28;20060;-68
2022/03/08 08:23:07;;;;;;;20.75;13.65;;;;;;;0.60;86.33;102447.50;5021089;28;20376;-67
2022/03/08 08:25:33;;;;;;;21.63;13.90;;;;;;;0.65;86.02;102435.44;5020970;28;20659;-68
2022/03/08 08:27:58;;;;;;;20.85;13.82;;;;;;;0.71;86.47;102440.75;5020301;28;20049;-68
2022/03/08 08:30:25;;;;;;;21.52;13.25;;;;;;;0.77;86.33;102435.69;5019512;28;20538;-67
2022/03/08 08:32:50;;;;;;;22.85;13.25;;;;;;;0.84;85.99;102435.81;5020553;28;20037;-67
2022/03/08 08:35:17;;;;;;;20.48;13.88;;;;;;;0.91;85.95;102432.47;5020411;28;20423;-67
2022/03/08 08:37:43;;;;;;;19.35;13.52;;;;;;;0.98;85.96;102428.28;5024432;28;21842;-67
2022/03/08 08:40:09;;;;;;;21.27;14.13;;;;;;;1.05;86.15;102424.94;5020532;28;20029;-67
2022/03/08 08:42:36;;;;;;;19.17;12.68;;;;;;;1.12;85.82;102425.94;5020576;28;20127;-68
2022/03/08 08:45:02;;;;;;;19.92;13.65;;;;;;;1.19;85.88;102427.81;5021101;28;20187;-67
2022/03/08 08:47:28;;;;;;;21.17;13.40;;;;;;;1.28;85.72;102424.50;5020526;28;20033;-67
2022/03/08 08:49:53;;;;;;;19.45;13.82;;;;;;;1.33;85.54;102421.16;5019428;28;20044;-67
2022/03/08 08:52:19;;;;;;;19.58;13.18;;;;;;;1.42;85.53;102423.00;5019965;28;20467;-67
2022/03/08 08:54:47;;;;;;;21.00;12.65;;;;;;;1.51;85.53;102419.69;5020421;28;20046;-68
2022/03/08 08:57:13;;;;;;;23.02;13.15;;;;;;;1.59;85.45;102422.47;5020188;28;20033;-68
2022/03/08 08:59:39;;;;;;;19.25;12.82;;;;;;;1.67;85.30;102405.19;5018679;28;20331;-69
2022/03/08 09:02:04;;;;;;;19.42;12.95;;;;;;;1.76;85.05;102405.31;5019070;28;20227;-69
2022/03/08 09:04:30;;;;;;;17.00;12.52;;;;;;;1.87;85.01;102399.41;5019788;28;20040;-69
2022/03/08 09:06:56;;;;;;;17.90;11.70;;;;;;;1.96;84.79;102394.31;5023756;28;20112;-69
2022/03/08 09:09:21;;;;;;;16.55;11.20;;;;;;;2.07;84.55;102385.78;5020320;28;20025;-69
2022/03/08 09:11:47;;;;;;;14.93;10.60;;;;;;;2.15;84.16;102384.16;5021532;28;20592;-69
2022/03/08 09:14:12;;;;;;;18.23;11.38;;;;;;;2.23;83.96;102387.75;5018369;28;21376;-70
2022/03/08 09:16:38;;;;;;;15.18;11.38;;;;;;;2.33;83.60;102382.66;5019971;28;20029;-69
2022/03/08 09:19:04;;;;;;;15.95;11.13;;;;;;;2.42;83.40;102374.94;5020169;28;20053;-69
2022/03/08 09:21:29;;;;;;;14.40;10.75;;;;;;;2.51;83.12;102375.03;5020348;28;20025;-69
2022/03/08 09:23:55;;;;;;;13.88;10.45;;;;;;;2.58;82.56;102371.66;5018058;28;20037;-69
2022/03/08 09:26:20;;;;;;;17.65;10.82;;;;;;;2.67;82.71;102370.88;5019294;28;21586;-69
2022/03/08 09:28:46;;;;;;;11.98;9.90;;;;;;;2.77;82.55;102378.88;5019355;28;20152;-70
2022/03/08 09:31:12;;;;;;;13.68;9.20;;;;;;;2.84;82.03;102378.06;5004592;28;20033;-70
2022/03/08 09:33:38;;;;;;;14.05;9.55;;;;;;;2.93;81.59;102372.03;5018930;28;20408;-70
2022/03/08 09:36:04;;;;;;;13.57;10.02;;;;;;;2.99;81.83;102378.22;5020149;28;20041;-70
2022/03/08 09:38:30;;;;;;;12.50;9.45;;;;;;;3.07;81.47;102374.81;5011175;28;20022;-71
2022/03/08 09:40:55;;;;;;;12.85;8.93;;;;;;;3.18;81.42;102372.31;5013496;28;20068;-70
2022/03/08 09:43:21;;;;;;;11.65;8.75;;;;;;;3.25;80.89;102375.00;5013898;28;20427;-70
2022/03/08 09:45:46;;;;;;;12.60;9.15;;;;;;;3.34;80.77;102374.22;5012275;28;20241;-69
2022/03/08 09:48:12;;;;;;;13.23;9.13;;;;;;;3.45;79.80;102369.09;5013460;28;21558;-69
2022/03/08 09:50:38;;;;;;;13.20;8.77;;;;;;;3.54;79.37;102365.66;5012217;28;20741;-69
2022/03/08 09:53:04;;;;;;;10.65;8.50;;;;;;;3.62;78.93;102364.00;5012042;28;20610;-69
2022/03/08 09:55:30;;;;;;;13.27;9.10;;;;;;;3.70;78.40;102363.16;5015762;28;20301;-69
2022/03/08 09:57:55;;;;;;;13.00;8.77;;;;;;;3.76;78.27;102350.97;5013213;28;20042;-69
2022/03/08 10:00:23;;;;;;;10.75;8.52;;;;;;;3.84;77.97;102348.44;5015686;28;20592;-69
2022/03/08 10:02:52;;;;;;;9.77;8.30;;;;;;;3.92;76.97;102348.50;5014784;28;20068;-70
2022/03/08 10:05:25;;;;;;;10.35;8.20;;;;;;;3.99;76.37;102345.03;5015570;28;20547;-70
2022/03/08 10:08:13;;;;;;;12.70;8.52;;;;;;;4.08;75.81;102344.19;5014067;28;20041;-69
2022/03/08 10:11:03;;;;;;;11.07;7.85;;;;;;;4.17;75.42;102344.25;5029898;28;20056;-69
2022/03/08 10:13:35;;;;;;;10.88;8.52;;;;;;;4.24;75.69;102334.66;5013617;28;20053;-70
2022/03/08 10:16:08;;;;;;;10.43;7.88;;;;;;;4.30;74.94;102337.31;5015710;28;20025;-69
2022/03/08 10:18:36;;;;;;;10.88;7.65;;;;;;;4.38;74.54;102329.50;5014762;28;20049;-69
2022/03/08 10:21:01;;;;;;;9.98;7.75;;;;;;;4.45;74.86;102330.41;5014665;28;20072;-69
2022/03/08 10:23:27;;;;;;;10.52;7.57;;;;;;;4.55;74.27;102332.19;5013689;28;20797;-69
2022/03/08 10:25:52;;;;;;;9.60;7.07;;;;;;;4.64;72.99;102322.59;5015592;28;20059;-69
2022/03/08 10:28:18;;;;;;;8.80;6.97;;;;;;;4.74;72.80;102320.00;5013670;28;21415;-69
2022/03/08 10:30:43;;;;;;;7.93;6.88;;;;;;;4.82;72.74;102320.03;5014440;28;20037;-69
2022/03/08 10:33:09;;;;;;;7.35;6.55;;;;;;;4.91;72.07;102323.53;5013248;28;20661;-69
2022/03/08 10:35:40;;;;;;;9.35;6.30;;;;;;;4.95;71.38;102320.91;5013675;28;20033;-69
2022/03/08 10:38:12;;;;;;;7.75;6.72;;;;;;;5.02;71.05;102321.81;5011330;28;20045;-69
2022/03/08 10:40:39;;;;;;;8.98;7.00;;;;;;;5.07;71.21;102317.44;5014408;28;21325;-69
2022/03/08 10:43:06;;;;;;;8.27;7.18;;;;;;;5.15;70.27;102318.34;5014088;28;20121;-69
2022/03/08 10:45:34;;;;;;;9.73;7.45;;;;;;;5.20;70.24;102299.97;5013743;28;20037;-69
2022/03/08 10:48:00;;;;;;;9.77;7.50;;;;;;;5.25;70.19;102308.72;5013127;28;21464;-70
2022/03/08 10:50:34;;;;;;;9.63;7.55;;;;;;;5.29;69.53;102305.19;5012666;28;20087;-69
2022/03/08 10:53:00;;;;;;;8.95;7.13;;;;;;;5.36;69.78;102302.56;5017555;28;20099;-69
2022/03/08 10:55:33;;;;;;;8.68;7.78;;;;;;;5.41;69.19;102293.81;5019118;28;20041;-69
2022/03/08 10:58:08;;;;;;;9.88;7.82;;;;;;;5.47;69.38;102292.94;5020241;28;20037;-69
2022/03/08 11:00:39;;;;;;;10.90;7.53;;;;;;;5.54;69.20;102301.69;5023431;28;20033;-69
2022/03/08 11:03:07;;;;;;;10.52;7.35;;;;;;;5.58;69.15;102293.78;5021921;28;20609;-67
2022/03/08 11:05:37;;;;;;;9.55;7.20;;;;;;;5.61;68.75;102285.03;5023990;28;20384;-68
2022/03/08 11:08:04;;;;;;;10.77;7.22;;;;;;;5.66;68.65;102290.31;5021592;28;20132;-68
2022/03/08 11:10:30;;;;;;;10.10;7.45;;;;;;;5.68;68.05;102278.03;5023152;28;20037;-68
2022/03/08 11:12:57;;;;;;;8.45;7.00;;;;;;;5.70;67.97;102274.53;5023901;28;20033;-69